Time;durP1;ratioP1;P1;durP2;ratioP2;P2;SDS_P1;SDS_P2;PMS_P1;PMS_P2;Temp;Humidity;BMP_temperature;BMP_pressure;BME280_temperature;BME280_humidity;BME280_pressure;Samples;Min_cycle;Max_cycle;Signal;HPM_P1;HPM_P2
2021/04/04 00:00:40;;;;;;;14.82;3.60;;;;;;;5.59;100.00;102758.31;3616402;39;20098;-61
2021/04/04 00:03:06;;;;;;;17.98;4.13;;;;;;;5.61;100.00;102757.34;3617167;32;20154;-60
2021/04/04 00:05:32;;;;;;;11.77;3.47;;;;;;;5.69;100.00;102758.84;3618198;31;20173;-61
2021/04/04 00:07:58;;;;;;;35.05;13.90;;;;;;;5.69;100.00;102754.38;3616589;32;20102;-61
2021/04/04 00:10:24;;;;;;;16.73;3.60;;;;;;;5.63;100.00;102756.41;3618063;32;20086;-61
2021/04/04 00:12:50;;;;;;;13.43;3.00;;;;;;;5.63;100.00;102753.75;3617575;32;20404;-60
2021/04/04 00:15:17;;;;;;;16.92;3.83;;;;;;;5.66;100.00;102746.47;3616878;31;20083;-60
2021/04/04 00:17:44;;;;;;;13.65;3.28;;;;;;;5.72;100.00;102751.56;3619753;39;20394;-60
2021/04/04 00:20:11;;;;;;;18.13;3.58;;;;;;;5.56;100.00;102743.25;3618763;32;20413;-61
2021/04/04 00:22:37;;;;;;;15.55;3.10;;;;;;;5.67;100.00;102747.34;3620862;32;20059;-60
2021/04/04 00:25:05;;;;;;;13.70;3.40;;;;;;;5.61;100.00;102746.66;3620379;32;20086;-62
2021/04/04 00:27:31;;;;;;;10.40;2.88;;;;;;;5.67;100.00;102747.34;3621758;32;20063;-62
2021/04/04 00:29:57;;;;;;;16.35;3.92;;;;;;;5.54;100.00;102747.81;3619924;31;20154;-62
2021/04/04 00:32:23;;;;;;;12.05;3.38;;;;;;;5.42;100.00;102746.47;3620335;32;20066;-60
2021/04/04 00:34:50;;;;;;;13.18;2.92;;;;;;;5.48;100.00;102742.69;3620106;32;20087;-61
2021/04/04 00:37:16;;;;;;;17.05;3.15;;;;;;;5.48;100.00;102740.03;3618553;31;20079;-61
2021/04/04 00:39:42;;;;;;;12.77;3.17;;;;;;;5.44;100.00;102741.91;3619945;31;20163;-61
2021/04/04 00:42:08;;;;;;;12.68;2.97;;;;;;;5.59;100.00;102743.19;3620191;32;20071;-61
2021/04/04 00:44:33;;;;;;;12.23;2.92;;;;;;;5.70;100.00;102740.09;3619996;32;20199;-61
2021/04/04 00:46:59;;;;;;;18.80;3.28;;;;;;;5.59;100.00;102737.84;3620852;32;20317;-61
2021/04/04 00:49:25;;;;;;;14.95;3.17;;;;;;;5.63;100.00;102735.91;3619713;31;20477;-61
2021/04/04 00:51:53;;;;;;;12.52;2.65;;;;;;;5.59;100.00;102728.94;3620219;39;20393;-62
2021/04/04 00:54:19;;;;;;;13.63;2.80;;;;;;;5.72;100.00;102727.53;3619761;32;20432;-62
2021/04/04 00:56:45;;;;;;;13.75;3.38;;;;;;;5.61;100.00;102725.28;3620094;39;20059;-60
2021/04/04 00:59:12;;;;;;;16.23;3.58;;;;;;;5.60;100.00;102728.00;3618097;39;20319;-60
2021/04/04 01:01:38;;;;;;;13.35;2.88;;;;;;;5.65;100.00;102738.53;3619678;31;20384;-60
2021/04/04 01:04:05;;;;;;;9.13;3.40;;;;;;;5.56;100.00;102729.91;3618450;32;20846;-60
2021/04/04 01:06:31;;;;;;;15.05;2.90;;;;;;;5.59;100.00;102726.25;3620420;32;20396;-60
2021/04/04 01:08:58;;;;;;;12.32;3.38;;;;;;;5.58;100.00;102725.41;3617188;39;20165;-61
2021/04/04 01:11:31;;;;;;;10.38;2.80;;;;;;;5.58;100.00;102728.06;3619542;31;20083;-60
2021/04/04 01:14:02;;;;;;;13.88;2.50;;;;;;;5.41;100.00;102726.00;3620462;31;20086;-62
2021/04/04 01:16:34;;;;;;;8.65;2.30;;;;;;;5.49;100.00;102728.44;3619832;32;20079;-61
2021/04/04 01:19:06;;;;;;;10.75;2.55;;;;;;;5.51;100.00;102725.69;3620169;32;20123;-60
2021/04/04 01:21:39;;;;;;;11.00;2.40;;;;;;;5.53;100.00;102727.34;3619400;32;20055;-60
2021/04/04 01:24:26;;;;;;;6.97;2.15;;;;;;;5.53;100.00;102723.81;3619447;31;20065;-60
2021/04/04 01:26:59;;;;;;;15.23;2.78;;;;;;;5.60;100.00;102726.19;3619130;39;20093;-61
2021/04/04 01:29:28;;;;;;;8.70;2.60;;;;;;;5.57;100.00;102720.97;3620060;31;20172;-60
2021/04/04 01:31:55;;;;;;;16.17;2.85;;;;;;;5.43;100.00;102713.50;3618492;32;20134;-62
2021/04/04 01:34:24;;;;;;;11.75;2.42;;;;;;;5.44;100.00;102719.69;3619653;32;20329;-60
2021/04/04 01:36:52;;;;;;;13.73;3.08;;;;;;;5.46;100.00;102717.81;3502138;34;20771;-62
2021/04/04 01:39:20;;;;;;;11.32;2.38;;;;;;;5.41;100.00;102712.66;3618253;39;20105;-60
2021/04/04 01:41:48;;;;;;;12.85;3.10;;;;;;;5.35;100.00;102715.56;3619320;39;20067;-60
2021/04/04 01:44:17;;;;;;;8.70;2.40;;;;;;;5.47;100.00;102710.72;3620170;31;20394;-61
2021/04/04 01:46:46;;;;;;;12.90;2.40;;;;;;;5.43;100.00;102716.16;3619024;31;20050;-62
2021/04/04 01:49:13;;;;;;;14.52;2.67;;;;;;;5.44;100.00;102704.53;3620025;39;20073;-61
2021/04/04 01:51:40;;;;;;;13.20;2.40;;;;;;;5.44;100.00;102704.53;3619538;31;20078;-60
2021/04/04 01:54:08;;;;;;;14.13;2.85;;;;;;;5.50;100.00;102703.44;3619718;31;20371;-61
2021/04/04 01:56:35;;;;;;;19.60;3.28;;;;;;;5.55;100.00;102698.81;3619313;32;20082;-62
2021/04/04 01:59:02;;;;;;;13.88;2.70;;;;;;;5.52;100.00;102700.69;3619788;32;20412;-62
2021/04/04 02:01:28;;;;;;;11.65;2.97;;;;;;;5.46;100.00;102699.13;3619505;32;20067;-61
2021/04/04 02:04:00;;;;;;;11.50;2.45;;;;;;;5.53;100.00;102695.31;3620100;31;20091;-61
2021/04/04 02:06:26;;;;;;;16.38;2.63;;;;;;;5.43;100.00;102700.13;3619128;32;20358;-63
2021/04/04 02:08:53;;;;;;;14.80;2.60;;;;;;;5.44;100.00;102696.53;3619330;32;20063;-62
2021/04/04 02:11:30;;;;;;;10.05;2.17;;;;;;;5.49;100.00;102692.81;3619819;32;20067;-61
2021/04/04 02:13:57;;;;;;;10.57;2.70;;;;;;;5.52;100.00;102698.94;3619619;31;20490;-61
2021/04/04 02:16:26;;;;;;;9.57;2.30;;;;;;;5.38;100.00;102690.56;3620574;31;20091;-60
2021/04/04 02:18:52;;;;;;;14.48;2.50;;;;;;;5.43;100.00;102688.56;3619453;32;20071;-62
2021/04/04 02:21:19;;;;;;;13.43;2.88;;;;;;;5.45;100.00;102694.75;3619322;32;20078;-61
2021/04/04 02:23:46;;;;;;;7.18;2.00;;;;;;;5.43;100.00;102694.81;3619095;31;20067;-60
2021/04/04 02:26:13;;;;;;;9.60;2.75;;;;;;;5.42;100.00;102686.84;3619215;32;20082;-62
2021/04/04 02:28:39;;;;;;;18.55;2.53;;;;;;;5.54;100.00;102691.72;3619827;32;20058;-62
2021/04/04 02:31:06;;;;;;;14.60;2.88;;;;;;;5.36;100.00;102689.72;3619025;32;20073;-62
2021/04/04 02:33:36;;;;;;;12.18;2.30;;;;;;;5.54;100.00;102685.50;3619446;31;20508;-61
2021/04/04 02:36:06;;;;;;;15.88;2.90;;;;;;;5.40;100.00;102678.00;3619888;32;20396;-61
2021/04/04 02:38:35;;;;;;;10.23;2.45;;;;;;;5.44;100.00;102677.81;3618899;32;20070;-61
2021/04/04 02:41:05;;;;;;;15.40;2.90;;;;;;;5.42;100.00;102674.34;3618131;39;20083;-62
2021/04/04 02:43:34;;;;;;;14.57;2.63;;;;;;;5.44;100.00;102674.28;3619838;31;20051;-60
2021/04/04 02:46:03;;;;;;;12.57;2.60;;;;;;;5.39;100.00;102681.63;3619795;32;20075;-62
2021/04/04 02:48:32;;;;;;;13.65;2.97;;;;;;;5.43;100.00;102677.88;3618400;32;20771;-60
2021/04/04 02:51:00;;;;;;;13.30;2.20;;;;;;;5.43;100.00;102670.75;3620086;32;20091;-61
2021/04/04 02:53:28;;;;;;;14.10;2.35;;;;;;;5.55;100.00;102671.22;3618315;31;20059;-62
2021/04/04 02:55:57;;;;;;;16.80;3.25;;;;;;;5.47;100.00;102674.19;3619670;32;20090;-61
2021/04/04 02:58:24;;;;;;;15.70;2.63;;;;;;;5.57;100.00;102664.88;3618499;32;20075;-60
2021/04/04 03:00:54;;;;;;;11.30;2.83;;;;;;;5.52;100.00;102668.66;3618027;32;20051;-61
2021/04/04 03:03:22;;;;;;;13.75;2.65;;;;;;;5.46;100.00;102658.22;3618805;32;20392;-61
2021/04/04 03:05:48;;;;;;;8.43;2.15;;;;;;;5.38;100.00;102663.84;3618808;39;20168;-62
2021/04/04 03:08:16;;;;;;;10.35;2.78;;;;;;;5.36;100.00;102663.03;3617862;32;20067;-60
2021/04/04 03:10:43;;;;;;;17.05;3.00;;;;;;;5.37;100.00;102656.75;3618517;31;20427;-61
2021/04/04 03:13:10;;;;;;;12.30;2.60;;;;;;;5.43;100.00;102645.84;3619795;32;20085;-61
2021/04/04 03:15:38;;;;;;;11.38;2.65;;;;;;;5.59;100.00;102644.34;3619073;32;20086;-60
2021/04/04 03:18:05;;;;;;;13.40;2.03;;;;;;;5.60;100.00;102643.41;3617807;39;20091;-61
2021/04/04 03:20:31;;;;;;;15.75;2.53;;;;;;;5.51;100.00;102635.75;3618146;32;20076;-61
2021/04/04 03:22:58;;;;;;;18.77;3.20;;;;;;;5.50;100.00;102636.66;3619792;32;20071;-62
2021/04/04 03:25:25;;;;;;;12.23;2.85;;;;;;;5.51;100.00;102641.09;3619080;31;20059;-61
2021/04/04 03:27:54;;;;;;;17.52;2.45;;;;;;;5.50;100.00;102631.31;3618742;32;20062;-61
2021/04/04 03:30:43;;;;;;;11.47;2.47;;;;;;;5.45;100.00;102633.31;3618748;32;20074;-62
2021/04/04 03:33:11;;;;;;;11.88;2.28;;;;;;;5.46;100.00;102634.19;3618587;32;20277;-60
2021/04/04 03:35:38;;;;;;;10.82;3.10;;;;;;;5.54;100.00;102640.09;3618808;39;20058;-62
2021/04/04 03:38:08;;;;;;;12.35;2.70;;;;;;;5.51;100.00;102649.09;3618301;31;20067;-61
2021/04/04 03:40:34;;;;;;;12.27;2.40;;;;;;;5.56;100.00;102648.91;3618390;32;20083;-62
2021/04/04 03:43:03;;;;;;;20.20;3.03;;;;;;;5.53;100.00;102647.22;3619177;32;20162;-61
2021/04/04 03:45:30;;;;;;;;;;;;;;;5.51;100.00;102643.75;3619331;32;20086;-62
2021/04/04 03:47:58;;;;;;;13.43;2.63;;;;;;;5.49;100.00;102639.41;3619003;32;19938;-62
2021/04/04 03:50:25;;;;;;;14.80;2.78;;;;;;;5.36;100.00;102639.88;3619400;31;20067;-62
2021/04/04 03:52:51;;;;;;;12.68;2.72;;;;;;;5.31;100.00;102635.63;3619741;32;20160;-61
2021/04/04 03:55:21;;;;;;;16.70;2.67;;;;;;;5.34;100.00;102636.38;3620629;32;20312;-62
2021/04/04 03:57:49;;;;;;;15.38;2.72;;;;;;;5.32;100.00;102642.72;3620700;31;20075;-61
2021/04/04 04:00:19;;;;;;;11.90;5.10;;;;;;;5.44;100.00;102639.56;3619355;39;20071;-62
2021/04/04 04:02:48;;;;;;;12.77;2.70;;;;;;;5.43;100.00;102637.81;3620949;31;20357;-61
2021/04/04 04:05:16;;;;;;;11.85;2.40;;;;;;;5.54;100.00;102640.97;3620977;32;20059;-61
2021/04/04 04:07:43;;;;;;;6.45;2.00;;;;;;;5.43;100.00;102630.72;3618803;32;20059;-61
2021/04/04 04:10:11;;;;;;;7.45;2.60;;;;;;;5.31;100.00;102636.50;3620655;31;20081;-61
2021/04/04 04:12:37;;;;;;;12.18;2.83;;;;;;;5.27;100.00;102629.56;3620916;32;20075;-61
2021/04/04 04:15:04;;;;;;;10.60;2.45;;;;;;;5.39;100.00;102630.88;3620661;31;20292;-60
2021/04/04 04:17:32;;;;;;;12.45;2.83;;;;;;;5.38;100.00;102627.31;3620944;31;20059;-61
2021/04/04 04:20:00;;;;;;;12.68;2.88;;;;;;;5.43;100.00;102629.81;3620058;32;20056;-60
2021/04/04 04:22:27;;;;;;;11.90;2.55;;;;;;;5.32;100.00;102616.03;3619812;39;20091;-61
2021/04/04 04:24:53;;;;;;;8.95;2.35;;;;;;;5.53;100.00;102622.34;3620716;32;20063;-61
2021/04/04 04:27:21;;;;;;;12.52;2.78;;;;;;;5.48;100.00;102622.50;3619602;32;20090;-60
2021/04/04 04:29:48;;;;;;;9.88;2.58;;;;;;;5.41;100.00;102621.00;3619970;32;20354;-61
2021/04/04 04:32:18;;;;;;;11.95;2.40;;;;;;;5.39;100.00;102628.22;3621020;32;20137;-61
2021/04/04 04:34:45;;;;;;;11.50;2.58;;;;;;;5.41;100.00;102626.34;3620483;39;20098;-61
2021/04/04 04:37:13;;;;;;;10.10;2.40;;;;;;;5.39;100.00;102612.19;3619883;32;20073;-61
2021/04/04 04:39:41;;;;;;;13.60;2.78;;;;;;;5.47;100.00;102618.09;3619872;31;20415;-61
2021/04/04 04:44:52;;;;;;;16.63;2.90;;;;;;;5.49;100.00;102597.56;3612355;32;20106;-62
2021/04/04 04:47:19;;;;;;;8.23;2.30;;;;;;;5.51;100.00;102600.16;3610064;32;20156;-61
2021/04/04 04:49:45;;;;;;;12.90;3.10;;;;;;;5.48;100.00;102598.47;3609895;39;20068;-60
2021/04/04 04:52:12;;;;;;;13.07;2.60;;;;;;;5.44;100.00;102592.38;3609459;32;20067;-61
2021/04/04 04:54:41;;;;;;;9.43;2.35;;;;;;;5.52;100.00;102592.09;3610485;32;20063;-61
2021/04/04 04:57:08;;;;;;;12.80;2.78;;;;;;;5.43;100.00;102604.00;3610846;32;20392;-63
2021/04/04 04:59:35;;;;;;;9.00;2.55;;;;;;;5.45;100.00;102601.28;3610216;32;20095;-60
2021/04/04 05:02:03;;;;;;;14.57;2.90;;;;;;;5.45;100.00;102598.59;3610144;32;20078;-61
2021/04/04 05:04:29;;;;;;;7.43;2.15;;;;;;;5.31;100.00;102590.25;3611933;32;20075;-61
2021/04/04 05:06:55;;;;;;;13.23;2.60;;;;;;;5.38;100.00;102587.28;3611600;32;20963;-61
2021/04/04 05:09:22;;;;;;;9.40;2.25;;;;;;;5.41;100.00;102589.81;3610741;32;20082;-61
2021/04/04 05:11:50;;;;;;;10.45;2.20;;;;;;;5.49;100.00;102586.88;3610845;32;20059;-60
2021/04/04 05:14:16;;;;;;;8.60;2.55;;;;;;;5.41;100.00;102594.31;3610241;32;20079;-60
2021/04/04 05:16:42;;;;;;;10.88;2.58;;;;;;;5.37;100.00;102604.22;3610369;32;20520;-60
2021/04/04 05:19:10;;;;;;;11.57;2.45;;;;;;;5.44;100.00;102599.53;3609773;32;20071;-60
2021/04/04 05:21:38;;;;;;;8.15;2.45;;;;;;;5.24;100.00;102613.63;3610957;32;20087;-61
2021/04/04 05:24:06;;;;;;;12.25;2.33;;;;;;;5.32;100.00;102608.88;3610180;32;20079;-61
2021/04/04 05:26:35;;;;;;;8.60;2.38;;;;;;;5.31;100.00;102622.28;3609766;32;20776;-61
2021/04/04 05:29:02;;;;;;;12.27;2.40;;;;;;;5.32;100.00;102613.34;3611346;32;20079;-61
2021/04/04 05:31:28;;;;;;;6.05;2.38;;;;;;;5.26;100.00;102615.31;3610913;32;20188;-61
2021/04/04 05:33:54;;;;;;;7.47;2.70;;;;;;;5.31;100.00;102615.13;3611542;32;20072;-60
2021/04/04 05:36:20;;;;;;;7.47;2.90;;;;;;;5.31;100.00;102615.13;3609978;32;20064;-62
2021/04/04 05:38:46;;;;;;;7.07;2.47;;;;;;;5.30;100.00;102612.53;3609593;32;20056;-62
2021/04/04 05:41:13;;;;;;;9.20;3.22;;;;;;;5.32;100.00;102610.69;3610152;32;20091;-61
2021/04/04 05:43:42;;;;;;;10.40;3.25;;;;;;;5.26;100.00;102617.13;3610184;32;20361;-61
2021/04/04 05:46:11;;;;;;;;;;;;;;;5.39;100.00;102610.38;3611296;32;20154;-61
2021/04/04 05:48:55;;;;;;;9.98;3.10;;;;;;;5.34;100.00;102611.50;3610234;32;19943;-61
2021/04/04 05:51:30;;;;;;;9.00;3.03;;;;;;;5.48;100.00;102614.50;3610176;32;20059;-61
2021/04/04 05:54:28;;;;;;;8.18;2.67;;;;;;;5.46;100.00;102613.66;3609081;39;20062;-62
2021/04/04 05:56:58;;;;;;;8.68;3.58;;;;;;;5.18;100.00;102612.09;3610224;32;20070;-62
2021/04/04 05:59:34;;;;;;;7.80;2.75;;;;;;;5.22;100.00;102611.00;3608357;32;20063;-61
2021/04/04 06:02:34;;;;;;;6.70;2.92;;;;;;;5.21;100.00;102609.28;3610780;32;20064;-61
2021/04/04 06:05:03;;;;;;;7.53;2.90;;;;;;;5.23;100.00;102612.78;3610573;32;20148;-61
2021/04/04 06:07:53;;;;;;;12.63;2.97;;;;;;;5.22;100.00;102604.81;3610287;32;20110;-62
2021/04/04 06:10:25;;;;;;;7.85;2.67;;;;;;;5.18;100.00;102604.09;3608950;32;20056;-61
2021/04/04 06:13:16;;;;;;;8.25;2.70;;;;;;;5.22;100.00;102608.34;3610145;39;20144;-61
2021/04/04 06:15:55;;;;;;;7.93;2.97;;;;;;;5.23;100.00;102606.56;3610354;32;20060;-61
2021/04/04 06:18:31;;;;;;;9.57;3.15;;;;;;;5.31;100.00;102609.78;3610230;32;20352;-61
2021/04/04 06:21:09;;;;;;;14.30;3.33;;;;;;;5.29;100.00;102616.16;3610155;32;20443;-61
2021/04/04 06:23:42;;;;;;;10.73;3.08;;;;;;;5.22;100.00;102605.69;3609192;32;20087;-62
2021/04/04 06:26:24;;;;;;;10.02;3.50;;;;;;;5.25;100.00;102605.56;3609013;39;20172;-61
2021/04/04 06:28:58;;;;;;;7.55;3.20;;;;;;;5.33;100.00;102599.06;3610052;34;20138;-61
2021/04/04 06:31:34;;;;;;;8.60;3.47;;;;;;;5.30;100.00;102609.84;3588166;32;20096;-61
2021/04/04 06:34:08;;;;;;;7.72;3.40;;;;;;;5.20;100.00;102607.56;3588662;39;20087;-61
2021/04/04 06:36:41;;;;;;;11.13;4.13;;;;;;;5.14;100.00;102613.13;3589261;32;20079;-61
2021/04/04 06:39:19;;;;;;;10.73;3.75;;;;;;;5.18;100.00;102614.75;3589117;32;20309;-60
2021/04/04 06:41:53;;;;;;;13.05;4.43;;;;;;;5.21;100.00;102611.97;3589859;32;20569;-62
2021/04/04 06:44:28;;;;;;;7.35;3.53;;;;;;;5.21;100.00;102613.75;3587568;32;20096;-61
2021/04/04 06:47:00;;;;;;;7.35;3.67;;;;;;;5.24;100.00;102613.63;3589344;32;20061;-61
2021/04/04 06:49:35;;;;;;;11.93;3.30;;;;;;;5.31;100.00;102609.78;3588321;32;20363;-61
2021/04/04 06:52:15;;;;;;;7.05;3.22;;;;;;;5.28;100.00;102607.25;3589569;32;20157;-61
2021/04/04 06:54:52;;;;;;;9.10;3.22;;;;;;;5.33;100.00;102612.41;3588676;32;20758;-62
2021/04/04 06:57:43;;;;;;;8.70;2.58;;;;;;;5.29;100.00;102614.34;3589288;32;20382;-60
2021/04/04 07:00:13;;;;;;;6.70;2.40;;;;;;;5.26;100.00;102603.78;3587149;32;20068;-61
2021/04/04 07:02:53;;;;;;;6.20;2.60;;;;;;;5.25;100.00;102610.91;3588806;32;20313;-61
2021/04/04 07:05:22;;;;;;;9.02;3.13;;;;;;;5.29;100.00;102594.78;3589261;32;20088;-61
2021/04/04 07:08:02;;;;;;;6.57;2.50;;;;;;;5.26;100.00;102595.78;3589172;32;20064;-61
2021/04/04 07:13:29;;;;;;;8.40;2.75;;;;;;;5.28;100.00;102599.25;3601299;34;20067;-62
2021/04/04 07:16:14;;;;;;;8.55;2.80;;;;;;;5.24;100.00;102601.16;3602145;32;20406;-61
2021/04/04 07:19:08;;;;;;;5.13;2.30;;;;;;;5.25;100.00;102602.88;3603138;32;20075;-61
2021/04/04 07:22:02;;;;;;;6.97;2.63;;;;;;;5.37;100.00;102598.00;3602475;32;20076;-61
2021/04/04 07:24:41;;;;;;;8.98;2.60;;;;;;;5.44;100.00;102592.38;3603020;32;20062;-60
2021/04/04 07:27:15;;;;;;;6.70;3.00;;;;;;;5.46;100.00;102592.31;3603921;32;20076;-60
2021/04/04 07:30:29;;;;;;;8.25;2.58;;;;;;;5.54;100.00;102594.69;3602533;32;20397;-62
2021/04/04 07:33:03;;;;;;;6.72;2.28;;;;;;;5.61;100.00;102605.06;3602644;39;20075;-61
2021/04/04 07:35:39;;;;;;;5.07;2.45;;;;;;;5.58;100.00;102598.97;3602749;32;20090;-61
2021/04/04 07:38:12;;;;;;;8.32;2.40;;;;;;;5.61;100.00;102594.38;3603064;32;20060;-61
2021/04/04 07:40:47;;;;;;;7.25;2.78;;;;;;;5.54;100.00;102606.25;3601771;32;20079;-61
2021/04/04 07:43:21;;;;;;;8.32;2.70;;;;;;;5.54;100.00;102600.91;3602087;39;20075;-62
2021/04/04 07:45:56;;;;;;;8.15;3.05;;;;;;;5.52;100.00;102602.78;3603109;32;20168;-64
2021/04/04 07:48:26;;;;;;;10.52;2.75;;;;;;;5.51;100.00;102593.00;3603182;32;20140;-62
2021/04/04 07:51:02;;;;;;;7.53;2.67;;;;;;;5.48;100.00;102595.81;3602847;32;20067;-62
2021/04/04 07:53:36;;;;;;;8.98;2.60;;;;;;;5.53;100.00;102591.13;3602812;32;20087;-62
2021/04/04 07:56:14;;;;;;;9.85;2.38;;;;;;;5.57;100.00;102594.56;3602591;32;20079;-63
2021/04/04 07:58:47;;;;;;;8.30;2.78;;;;;;;5.70;100.00;102595.81;3602184;39;20055;-64
2021/04/04 08:01:20;;;;;;;8.30;2.53;;;;;;;5.75;100.00;102584.94;3601879;32;20068;-61
2021/04/04 08:03:52;;;;;;;5.55;2.60;;;;;;;5.73;100.00;102589.50;3603013;32;20059;-62
2021/04/04 08:06:27;;;;;;;5.03;2.78;;;;;;;5.73;100.00;102594.84;3602524;32;20068;-63
2021/04/04 08:09:01;;;;;;;8.18;3.20;;;;;;;5.79;100.00;102583.91;3602572;32;20060;-62
2021/04/04 08:11:41;;;;;;;10.48;2.78;;;;;;;5.90;100.00;102586.13;3602508;32;20070;-63
2021/04/04 08:14:13;;;;;;;11.77;3.40;;;;;;;5.85;100.00;102588.97;3601673;39;20309;-62
2021/04/04 08:16:46;;;;;;;11.57;3.25;;;;;;;5.85;100.00;102588.97;3602739;32;20075;-61
2021/04/04 08:19:14;;;;;;;7.93;3.45;;;;;;;5.90;100.00;102586.13;3602100;32;20061;-61
2021/04/04 08:21:47;;;;;;;10.02;3.38;;;;;;;6.02;100.00;102580.31;3602028;32;20064;-62
2021/04/04 08:24:20;;;;;;;12.52;3.85;;;;;;;6.05;100.00;102585.53;3601919;32;20188;-62
2021/04/04 08:26:50;;;;;;;8.52;3.85;;;;;;;6.21;100.00;102588.41;3602036;39;20490;-62
2021/04/04 08:29:23;;;;;;;10.13;4.28;;;;;;;6.17;100.00;102581.47;3602015;32;20071;-63
2021/04/04 08:34:18;;;;;;;11.10;3.37;;;;;;;6.14;100.00;102586.94;3615384;34;20186;-62
2021/04/04 08:36:51;;;;;;;12.60;4.57;;;;;;;6.22;100.00;102587.47;3618583;32;20328;-63
2021/04/04 08:39:20;;;;;;;12.82;4.50;;;;;;;6.05;100.00;102580.19;3621607;31;20091;-62
2021/04/04 08:41:47;;;;;;;14.07;4.65;;;;;;;6.06;100.00;102576.56;3620141;31;20294;-62
2021/04/04 08:44:19;;;;;;;13.88;4.63;;;;;;;6.11;100.00;102568.34;3621711;31;20058;-62
2021/04/04 08:46:47;;;;;;;14.38;4.95;;;;;;;6.21;100.00;102582.19;3620818;31;20282;-62
2021/04/04 08:49:14;;;;;;;14.90;5.60;;;;;;;6.30;100.00;102573.78;3620448;39;20066;-63
2021/04/04 08:51:44;;;;;;;12.50;4.88;;;;;;;6.38;100.00;102570.78;3619885;31;20372;-61
2021/04/04 08:54:17;;;;;;;15.15;4.95;;;;;;;6.29;100.00;102570.25;3620670;31;20054;-62
2021/04/04 08:56:46;;;;;;;12.45;4.50;;;;;;;6.40;100.00;102568.91;3620028;39;20180;-61
2021/04/04 08:59:15;;;;;;;16.05;5.57;;;;;;;6.49;100.00;102563.13;3619006;31;20056;-61
2021/04/04 09:01:46;;;;;;;14.38;4.97;;;;;;;6.56;100.00;102563.75;3619537;31;20090;-62
2021/04/04 09:04:12;;;;;;;12.43;5.40;;;;;;;6.55;100.00;102567.34;3620362;31;20393;-62
2021/04/04 09:06:40;;;;;;;13.38;4.85;;;;;;;6.63;100.00;102558.06;3619995;31;20055;-62
2021/04/04 09:09:19;;;;;;;8.40;4.45;;;;;;;6.63;100.00;102566.09;3620392;31;20667;-62
2021/04/04 09:11:47;;;;;;;;;;;;;;;6.54;100.00;102565.63;3619892;31;20082;-62
2021/04/04 09:14:14;;;;;;;15.00;5.10;;;;;;;6.68;100.00;102560.53;3618525;39;20016;-62
2021/04/04 09:16:51;;;;;;;9.10;4.72;;;;;;;6.77;100.00;102567.25;3620321;31;20071;-62
2021/04/04 09:19:26;;;;;;;10.30;4.60;;;;;;;6.72;100.00;102561.25;3619995;31;20059;-62
2021/04/04 09:21:52;;;;;;;8.95;4.40;;;;;;;6.75;100.00;102559.31;3619080;31;20181;-62
2021/04/04 09:24:19;;;;;;;10.05;4.63;;;;;;;6.68;100.00;102562.34;3620690;31;20390;-62
2021/04/04 09:26:45;;;;;;;11.40;5.13;;;;;;;6.78;100.00;102571.69;3619404;31;20393;-63
2021/04/04 09:29:12;;;;;;;13.95;4.75;;;;;;;6.92;100.00;102553.19;3618785;31;20063;-63
2021/04/04 09:31:39;;;;;;;11.77;5.18;;;;;;;7.10;100.00;102559.50;3620445;31;20083;-62
2021/04/04 09:34:09;;;;;;;17.40;4.82;;;;;;;7.11;100.00;102563.03;3620805;31;20201;-62
2021/04/04 09:36:43;;;;;;;12.38;5.00;;;;;;;7.03;100.00;102563.41;3620284;31;20063;-62
2021/04/04 09:39:10;;;;;;;10.02;5.00;;;;;;;7.06;100.00;102557.03;3619187;32;20176;-62
2021/04/04 09:41:39;;;;;;;12.05;5.05;;;;;;;7.13;100.00;102551.31;3619572;31;20070;-61
2021/04/04 09:44:06;;;;;;;12.40;4.78;;;;;;;7.19;100.00;102547.50;3620885;31;20178;-63
2021/04/04 09:46:33;;;;;;;13.88;5.53;;;;;;;7.32;100.00;102543.28;3619998;31;20381;-63
2021/04/04 09:48:59;;;;;;;8.95;4.68;;;;;;;7.13;100.00;102548.66;3619918;31;20054;-62
2021/04/04 09:51:25;;;;;;;9.55;4.93;;;;;;;7.22;100.00;102547.34;3619559;31;20406;-63
2021/04/04 09:56:39;;;;;;;11.30;4.72;;;;;;;7.11;100.00;102533.59;3612491;32;20130;-62
2021/04/04 09:59:05;;;;;;;15.55;5.30;;;;;;;7.32;100.00;102537.94;3612889;31;20051;-63
2021/04/04 10:01:31;;;;;;;16.15;5.00;;;;;;;7.58;100.00;102522.38;3614788;31;20074;-62
2021/04/04 10:03:59;;;;;;;11.43;4.97;;;;;;;7.53;100.00;102535.16;3612728;31;20097;-62
2021/04/04 10:06:26;;;;;;;16.45;5.32;;;;;;;7.73;100.00;102523.47;3612381;32;20393;-62
2021/04/04 10:08:53;;;;;;;11.90;4.88;;;;;;;7.61;100.00;102521.38;3612816;39;20369;-62
2021/04/04 10:11:20;;;;;;;12.70;4.93;;;;;;;7.43;100.00;102515.09;3612690;32;20078;-63
2021/04/04 10:13:46;;;;;;;13.48;5.22;;;;;;;7.34;100.00;102511.06;3613496;31;20075;-62
2021/04/04 10:16:21;;;;;;;14.38;5.07;;;;;;;7.49;100.00;102512.13;3613259;31;20060;-62
2021/04/04 10:19:00;;;;;;;14.05;5.32;;;;;;;7.60;100.00;102520.50;3615372;32;20171;-62
2021/04/04 10:21:26;;;;;;;;;;;;;;;7.44;100.00;102501.63;3613808;31;20274;-62
2021/04/04 10:23:52;;;;;;;10.52;5.03;;;;;;;7.59;100.00;102513.41;3613579;32;20031;-62
2021/04/04 10:26:20;;;;;;;14.82;5.35;;;;;;;7.60;100.00;102509.78;3613786;31;20090;-63
2021/04/04 10:28:51;;;;;;;10.70;5.00;;;;;;;7.33;100.00;102506.66;3614678;32;20059;-62
2021/04/04 10:31:18;;;;;;;15.00;5.22;;;;;;;7.32;100.00;102500.44;3613197;32;20077;-62
2021/04/04 10:33:44;;;;;;;14.45;5.65;;;;;;;7.46;100.00;102496.22;3612823;32;20151;-62
2021/04/04 10:36:12;;;;;;;13.02;5.22;;;;;;;7.49;100.00;102493.38;3612832;32;20082;-62
2021/04/04 10:38:38;;;;;;;11.35;4.88;;;;;;;7.71;100.00;102495.84;3613652;31;20067;-64
2021/04/04 10:41:06;;;;;;;11.10;5.53;;;;;;;7.75;100.00;102497.44;3612716;32;20070;-62
2021/04/04 10:43:36;;;;;;;12.20;5.38;;;;;;;7.85;100.00;102493.34;3613811;32;20063;-63
2021/04/04 10:46:06;;;;;;;15.93;6.30;;;;;;;7.80;100.00;102491.84;3612653;31;20199;-62
2021/04/04 10:48:35;;;;;;;12.00;5.85;;;;;;;7.84;100.00;102496.09;3613423;31;20098;-62
2021/04/04 10:51:02;;;;;;;14.23;4.85;;;;;;;7.79;100.00;102485.63;3612910;32;20070;-63
2021/04/04 10:53:28;;;;;;;14.18;6.10;;;;;;;8.10;100.00;102480.47;3613892;32;20055;-62
2021/04/04 10:55:55;;;;;;;13.57;6.60;;;;;;;8.02;100.00;102476.41;3612427;32;20396;-63
2021/04/04 10:58:25;;;;;;;13.40;5.97;;;;;;;7.81;100.00;102473.00;3612589;31;20171;-62
2021/04/04 11:00:52;;;;;;;12.27;5.80;;;;;;;7.72;100.00;102471.66;3612428;31;20064;-63
2021/04/04 11:03:20;;;;;;;13.15;5.50;;;;;;;7.84;100.00;102453.22;3612930;31;20084;-62
2021/04/04 11:05:47;;;;;;;14.68;5.97;;;;;;;8.20;100.00;102454.91;3612246;32;20412;-62
2021/04/04 11:08:13;;;;;;;19.23;6.18;;;;;;;8.12;100.00;102451.78;3611612;32;20091;-62
2021/04/04 11:10:39;;;;;;;18.25;6.07;;;;;;;8.20;100.00;102447.75;3611964;31;20079;-64
2021/04/04 11:13:05;;;;;;;13.50;5.53;;;;;;;8.59;100.00;102440.34;3612322;31;20298;-61
2021/04/04 11:15:34;;;;;;;18.42;5.32;;;;;;;8.47;100.00;102446.38;3612377;32;20083;-62
2021/04/04 11:18:05;;;;;;;;;;;;;;;8.94;97.29;102432.13;3612215;32;20155;-63
2021/04/04 11:21:59;;;;;;;14.13;5.35;;;;;;;8.83;99.37;102426.50;3602566;39;20833;-63
2021/04/04 11:24:25;;;;;;;;;;;;;;;8.64;97.74;102419.47;3597818;39;20284;-63
2021/04/04 11:26:54;;;;;;;11.95;5.00;;;;;;;8.67;96.05;102421.13;3596147;39;19939;-63
2021/04/04 11:29:23;;;;;;;15.40;5.43;;;;;;;8.71;98.58;102418.16;3596910;39;20455;-64
2021/04/04 11:31:51;;;;;;;10.55;5.47;;;;;;;8.58;96.58;102412.63;3597383;39;20084;-63
2021/04/04 11:34:30;;;;;;;17.52;11.70;;;;;;;8.63;97.26;102409.69;3595823;39;20166;-64
2021/04/04 11:36:58;;;;;;;12.23;6.28;;;;;;;8.73;97.19;102408.22;3598409;39;20137;-64
2021/04/04 11:39:25;;;;;;;13.00;6.22;;;;;;;9.00;98.50;102399.56;3596685;39;20602;-63
2021/04/04 11:41:53;;;;;;;14.90;5.63;;;;;;;8.95;96.27;102396.25;3597292;39;20509;-63
2021/04/04 11:44:26;;;;;;;16.17;5.78;;;;;;;8.64;97.36;102395.31;3595511;39;20429;-63
2021/04/04 11:46:54;;;;;;;16.27;5.82;;;;;;;8.93;97.25;102390.13;3597118;39;20040;-63